createdAt,value
2023-02-09T00:01:47.599Z,11.02
2023-02-09T00:04:15.516Z,11.43
2023-02-09T00:06:43.433Z,11.38
2023-02-09T00:09:11.262Z,11.45
2023-02-09T00:11:57.695Z,11.00
2023-02-09T00:14:26.632Z,10.60
2023-02-09T00:16:54.553Z,10.95
2023-02-09T00:19:22.289Z,12.15
2023-02-09T00:21:50.093Z,11.68
2023-02-09T00:24:18.204Z,11.85
2023-02-09T00:26:46.397Z,12.23
2023-02-09T00:29:14.727Z,12.02
2023-02-09T00:31:43.210Z,11.75
2023-02-09T00:34:13.962Z,11.80
2023-02-09T00:36:42.153Z,12.50
2023-02-09T00:39:09.915Z,11.85
2023-02-09T00:41:56.488Z,12.05
2023-02-09T00:44:24.366Z,12.07
2023-02-09T00:46:52.292Z,13.80
2023-02-09T00:49:20.849Z,14.90
2023-02-09T00:51:48.742Z,13.73
2023-02-09T00:54:17.083Z,13.57
2023-02-09T00:56:46.601Z,13.60
2023-02-09T00:59:14.587Z,13.82
2023-02-09T01:01:43.035Z,12.70
2023-02-09T01:04:10.771Z,11.93
2023-02-09T01:06:38.478Z,11.93
2023-02-09T01:09:06.381Z,12.00
2023-02-09T01:11:34.085Z,11.40
2023-02-09T01:14:04.314Z,11.70
2023-02-09T01:16:33.085Z,11.95
2023-02-09T01:19:02.969Z,12.23
2023-02-09T01:21:31.446Z,12.10
2023-02-09T01:23:59.491Z,11.48
2023-02-09T01:26:27.430Z,11.57
2023-02-09T01:28:55.391Z,11.65
2023-02-09T01:31:30.781Z,11.65
2023-02-09T01:34:02.186Z,11.80
2023-02-09T01:39:01.839Z,11.13
2023-02-09T01:41:30.980Z,11.88
2023-02-09T01:44:28.111Z,11.80
2023-02-09T01:46:55.885Z,10.90
2023-02-09T01:49:28.265Z,11.55
2023-02-09T01:52:07.630Z,12.15
2023-02-09T01:54:58.233Z,11.60
2023-02-09T01:57:31.672Z,11.52
2023-02-09T02:00:13.571Z,10.60
2023-02-09T02:02:54.482Z,11.07
2023-02-09T02:05:23.950Z,11.13
2023-02-09T02:08:13.315Z,11.73
2023-02-09T02:10:41.309Z,10.88
2023-02-09T02:13:09.128Z,11.25
2023-02-09T02:15:51.629Z,11.43
2023-02-09T02:19:03.605Z,11.25
2023-02-09T02:21:46.160Z,10.52
2023-02-09T02:24:44.381Z,11.00
2023-02-09T02:27:31.409Z,11.70
2023-02-09T02:30:25.426Z,11.20
2023-02-09T02:33:20.340Z,11.60
2023-02-09T02:36:07.701Z,11.57
2023-02-09T02:38:50.264Z,11.40
2023-02-09T02:41:52.687Z,11.70
2023-02-09T02:44:20.649Z,11.20
2023-02-09T02:47:03.040Z,11.25
2023-02-09T02:49:47.060Z,10.60
2023-02-09T02:52:31.879Z,8.60
2023-02-09T02:55:22.553Z,11.93
2023-02-09T02:57:55.632Z,8.55
2023-02-09T03:00:35.638Z,11.30
2023-02-09T03:03:22.128Z,11.73
2023-02-09T03:05:51.592Z,11.27
2023-02-09T03:08:19.728Z,11.55
2023-02-09T03:10:48.402Z,11.65
2023-02-09T03:14:04.582Z,11.60
2023-02-09T03:21:14.087Z,11.38
2023-02-09T03:24:04.557Z,11.93
2023-02-09T03:26:56.056Z,11.63
2023-02-09T03:29:27.597Z,11.50
2023-02-09T03:31:56.011Z,11.93
2023-02-09T03:34:23.822Z,12.32
2023-02-09T03:36:55.097Z,12.05
2023-02-09T03:39:23.070Z,12.35
2023-02-09T03:41:50.972Z,12.57
2023-02-09T03:44:27.937Z,12.18
2023-02-09T03:47:06.071Z,11.32
2023-02-09T03:49:39.255Z,12.23
2023-02-09T03:52:13.679Z,12.00
2023-02-09T03:54:42.362Z,11.75
2023-02-09T03:57:10.385Z,11.68
2023-02-09T03:59:39.139Z,12.00
2023-02-09T04:02:10.202Z,12.15
2023-02-09T04:04:38.222Z,12.45
2023-02-09T04:07:06.296Z,11.65
2023-02-09T04:09:34.390Z,13.02
2023-02-09T04:12:02.288Z,12.40
2023-02-09T04:14:30.134Z,12.60
2023-02-09T04:16:57.927Z,12.50
2023-02-09T04:19:25.800Z,12.52
2023-02-09T04:21:53.632Z,11.75
2023-02-09T04:24:28.654Z,12.25
2023-02-09T04:26:56.710Z,13.27
2023-02-09T04:29:24.559Z,12.90
2023-02-09T04:31:52.409Z,13.13
2023-02-09T04:34:21.158Z,12.68
2023-02-09T04:36:48.964Z,14.02
2023-02-09T04:39:16.909Z,13.63
2023-02-09T04:41:44.722Z,14.45
2023-02-09T04:44:12.511Z,15.30
2023-02-09T04:46:40.436Z,13.30
2023-02-09T04:49:08.544Z,13.05
2023-02-09T04:51:37.040Z,13.48
2023-02-09T04:54:04.832Z,13.25
2023-02-09T04:56:32.630Z,13.80
2023-02-09T04:59:19.426Z,13.30
2023-02-09T05:01:47.281Z,12.30
2023-02-09T05:04:15.658Z,13.30
2023-02-09T05:06:43.576Z,13.30
2023-02-09T05:09:11.336Z,12.30
2023-02-09T05:11:39.068Z,13.20
2023-02-09T05:14:06.722Z,12.90
2023-02-09T05:16:34.709Z,12.20
2023-02-09T05:19:02.489Z,12.60
2023-02-09T05:21:30.222Z,13.45
2023-02-09T05:23:57.938Z,15.57
2023-02-09T05:26:25.721Z,29.90
2023-02-09T05:28:53.574Z,27.73
2023-02-09T05:31:21.661Z,20.60
2023-02-09T05:33:49.485Z,17.85
2023-02-09T05:36:17.149Z,16.92
2023-02-09T05:38:44.906Z,16.02
2023-02-09T05:41:32.715Z,16.77
2023-02-09T05:44:00.448Z,13.27
2023-02-09T05:46:28.523Z,13.48
2023-02-09T05:48:56.422Z,12.82
2023-02-09T05:51:24.095Z,12.68
2023-02-09T05:53:54.262Z,14.60
2023-02-09T05:56:22.689Z,11.02
2023-02-09T05:58:50.414Z,16.75
2023-02-09T06:01:18.202Z,15.10
2023-02-09T06:03:46.029Z,14.25
2023-02-09T06:06:13.967Z,16.00
2023-02-09T06:08:41.813Z,13.88
2023-02-09T06:11:09.626Z,13.55
2023-02-09T06:13:37.501Z,13.35
2023-02-09T06:16:05.753Z,13.23
2023-02-09T06:18:33.639Z,14.60
2023-02-09T06:21:01.396Z,16.30
2023-02-09T06:23:29.273Z,16.05
2023-02-09T06:25:57.561Z,15.38
2023-02-09T06:28:25.431Z,16.48
2023-02-09T06:30:54.428Z,15.07
2023-02-09T06:33:22.241Z,15.43
2023-02-09T06:35:52.289Z,16.75
2023-02-09T06:38:20.663Z,15.73
2023-02-09T06:40:48.415Z,14.70
2023-02-09T06:43:17.047Z,14.82
2023-02-09T06:45:44.892Z,13.75
2023-02-09T06:48:12.597Z,14.45
2023-02-09T06:50:41.122Z,14.38
2023-02-09T06:53:08.864Z,14.40
2023-02-09T06:55:36.628Z,15.13
2023-02-09T06:58:04.980Z,15.20
2023-02-09T07:00:32.893Z,15.07
2023-02-09T07:03:00.758Z,14.40
2023-02-09T07:05:28.469Z,14.48
2023-02-09T07:07:56.851Z,14.93
2023-02-09T07:10:24.813Z,14.57
2023-02-09T07:12:53.651Z,14.05
2023-02-09T07:15:21.528Z,15.57
2023-02-09T07:17:49.243Z,14.55
2023-02-09T07:20:17.077Z,14.57
2023-02-09T07:22:45.259Z,14.27
2023-02-09T07:25:13.171Z,14.13
2023-02-09T07:27:44.689Z,15.80
2023-02-09T07:30:13.314Z,15.45
2023-02-09T07:32:42.164Z,15.20
2023-02-09T07:35:09.889Z,15.02
2023-02-09T07:37:37.655Z,14.23
2023-02-09T07:40:05.956Z,14.10
2023-02-09T07:42:34.734Z,14.85
2023-02-09T07:45:04.075Z,15.55
2023-02-09T07:47:32.095Z,15.80
2023-02-09T07:50:01.861Z,17.63
2023-02-09T07:52:29.515Z,17.30
2023-02-09T07:54:58.058Z,16.67
2023-02-09T07:57:27.521Z,15.75
2023-02-09T07:59:55.577Z,15.77
2023-02-09T08:02:36.197Z,15.55
2023-02-09T08:05:11.515Z,16.80
2023-02-09T08:07:39.263Z,15.77
2023-02-09T08:10:07.252Z,15.80
2023-02-09T08:12:53.986Z,15.77
2023-02-09T08:15:22.933Z,16.80
2023-02-09T08:20:27.628Z,18.88
2023-02-09T08:23:06.951Z,19.50
2023-02-09T08:25:36.010Z,18.92
2023-02-09T08:28:04.673Z,18.50
2023-02-09T08:30:34.328Z,18.20
2023-02-09T08:33:02.155Z,18.13
2023-02-09T08:35:30.860Z,17.95
2023-02-09T08:38:08.026Z,19.35
2023-02-09T08:40:41.343Z,19.17
2023-02-09T08:43:09.310Z,20.27
2023-02-09T08:45:40.269Z,18.00
2023-02-09T08:48:10.327Z,17.48
2023-02-09T08:50:58.007Z,17.20
2023-02-09T08:53:27.263Z,17.45
2023-02-09T08:55:55.545Z,17.48
2023-02-09T08:58:25.076Z,18.65
2023-02-09T09:01:00.091Z,18.08
2023-02-09T09:03:31.524Z,17.55
2023-02-09T09:06:08.110Z,18.25
2023-02-09T09:08:37.927Z,18.02
2023-02-09T09:11:07.320Z,18.00
2023-02-09T09:13:35.815Z,16.95
2023-02-09T09:16:05.281Z,18.52
2023-02-09T09:18:33.574Z,18.13
2023-02-09T09:21:01.846Z,17.23
2023-02-09T09:23:30.192Z,16.67
2023-02-09T09:26:02.371Z,18.05
2023-02-09T09:28:31.315Z,16.90
2023-02-09T09:31:05.739Z,16.85
2023-02-09T09:33:34.893Z,16.73
2023-02-09T09:36:04.872Z,17.60
2023-02-09T09:38:38.477Z,17.10
2023-02-09T09:41:23.382Z,16.80
2023-02-09T09:43:53.615Z,16.38
2023-02-09T09:46:35.626Z,16.92
2023-02-09T09:49:04.494Z,17.15
2023-02-09T09:51:49.514Z,17.48
2023-02-09T09:54:25.844Z,18.10
2023-02-09T09:56:55.732Z,18.42
2023-02-09T09:59:32.530Z,17.67
2023-02-09T10:02:39.726Z,18.05
2023-02-09T10:05:29.471Z,18.50
2023-02-09T10:08:23.485Z,17.63
2023-02-09T10:11:15.014Z,17.75
2023-02-09T10:13:52.086Z,17.90
2023-02-09T10:16:26.706Z,17.20
2023-02-09T10:18:59.389Z,19.00
2023-02-09T10:21:36.328Z,18.13
2023-02-09T10:24:26.531Z,17.80
2023-02-09T10:27:14.414Z,16.95
2023-02-09T10:29:42.233Z,17.77
2023-02-09T10:32:22.746Z,17.92
2023-02-09T10:34:55.944Z,18.33
2023-02-09T10:37:48.298Z,18.60
2023-02-09T10:40:23.973Z,17.77
2023-02-09T10:43:07.529Z,17.33
2023-02-09T10:45:45.287Z,18.15
2023-02-09T10:48:13.286Z,17.48
2023-02-09T10:51:28.979Z,18.35
2023-02-09T10:54:07.323Z,16.63
2023-02-09T10:56:46.812Z,17.98
2023-02-09T10:59:20.918Z,18.10
2023-02-09T11:02:00.107Z,17.58
2023-02-09T11:04:40.078Z,19.45
2023-02-09T11:07:17.917Z,18.30
2023-02-09T11:09:50.510Z,18.75
2023-02-09T11:12:22.537Z,19.17
2023-02-09T11:14:50.422Z,18.20
2023-02-09T11:17:26.375Z,18.30
2023-02-09T11:20:23.251Z,18.65
2023-02-09T11:23:04.911Z,18.58
2023-02-09T11:25:50.488Z,18.00
2023-02-09T11:28:48.451Z,18.73
2023-02-09T11:31:49.788Z,18.38
2023-02-09T11:34:48.938Z,18.50
2023-02-09T11:37:31.552Z,17.98
2023-02-09T11:40:32.751Z,17.92
2023-02-09T11:43:19.009Z,13.35
2023-02-09T11:45:50.804Z,18.65
2023-02-09T11:48:26.099Z,18.50
2023-02-09T11:51:08.053Z,18.40
2023-02-09T11:53:50.404Z,18.67
2023-02-09T11:56:22.475Z,19.05
2023-02-09T11:59:22.662Z,18.15
2023-02-09T12:01:55.169Z,18.05
2023-02-09T12:04:32.274Z,19.58
2023-02-09T12:07:15.992Z,17.17
2023-02-09T12:10:06.593Z,17.50
2023-02-09T12:13:01.481Z,17.17
2023-02-09T12:16:15.750Z,16.40
2023-02-09T12:18:45.458Z,17.55
2023-02-09T12:21:13.452Z,17.63
2023-02-09T12:23:46.625Z,16.38
2023-02-09T12:26:17.480Z,17.05
2023-02-09T12:29:03.432Z,17.43
2023-02-09T12:32:04.312Z,16.45
2023-02-09T12:34:53.093Z,15.48
2023-02-09T12:37:29.282Z,17.15
2023-02-09T12:40:07.205Z,16.55
2023-02-09T12:42:58.078Z,14.82
2023-02-09T12:45:43.840Z,15.05
2023-02-09T12:48:19.125Z,14.25
2023-02-09T12:50:54.827Z,14.88
2023-02-09T12:53:22.880Z,14.30
2023-02-09T12:56:03.707Z,14.57
2023-02-09T12:58:37.221Z,9.80
2023-02-09T13:01:06.518Z,15.07
2023-02-09T13:03:58.063Z,14.73
2023-02-09T13:06:53.943Z,14.90
2023-02-09T13:09:38.849Z,14.68
2023-02-09T13:12:19.979Z,16.23
2023-02-09T13:14:51.132Z,16.40
2023-02-09T13:18:02.144Z,16.13
2023-02-09T13:20:59.741Z,15.85
2023-02-09T13:23:32.427Z,16.33
2023-02-09T13:26:27.586Z,16.70
2023-02-09T13:29:20.394Z,16.42
2023-02-09T13:32:13.104Z,16.23
2023-02-09T13:37:58.901Z,14.57
2023-02-09T13:40:31.617Z,15.18
2023-02-09T13:43:24.187Z,15.90
2023-02-09T13:45:55.021Z,15.60
2023-02-09T13:48:45.248Z,11.88
2023-02-09T13:51:19.232Z,16.17
2023-02-09T13:54:00.013Z,16.30
2023-02-09T13:56:29.704Z,16.40
2023-02-09T13:58:58.541Z,16.70
2023-02-09T14:01:36.448Z,16.17
2023-02-09T14:04:25.494Z,15.18
2023-02-09T14:07:03.027Z,15.02
2023-02-09T14:09:47.469Z,15.68
2023-02-09T14:12:46.847Z,15.35
2023-02-09T14:15:33.623Z,14.73
2023-02-09T14:18:01.544Z,15.25
2023-02-09T14:20:29.241Z,16.60
2023-02-09T14:23:00.086Z,15.45
2023-02-09T14:25:31.568Z,15.75
2023-02-09T14:27:59.887Z,15.02
2023-02-09T14:30:33.559Z,14.48
2023-02-09T14:33:06.124Z,14.60
2023-02-09T14:35:41.309Z,15.45
2023-02-09T14:38:41.402Z,15.45
2023-02-09T14:41:28.398Z,14.52
2023-02-09T14:44:20.335Z,13.02
2023-02-09T14:46:52.442Z,13.75
2023-02-09T14:49:21.964Z,13.30
2023-02-09T14:52:14.996Z,13.77
2023-02-09T14:55:05.550Z,13.38
2023-02-09T14:57:39.084Z,13.20
2023-02-09T15:00:25.605Z,13.07
2023-02-09T15:02:54.214Z,12.85
2023-02-09T15:05:24.155Z,13.55
2023-02-09T15:08:03.177Z,13.50
2023-02-09T15:10:38.819Z,13.07
2023-02-09T15:13:06.754Z,12.48
2023-02-09T15:15:37.628Z,13.60
2023-02-09T15:18:06.552Z,9.73
2023-02-09T15:20:34.561Z,13.07
2023-02-09T15:23:02.322Z,16.98
2023-02-09T15:25:30.594Z,23.20
2023-02-09T15:28:00.600Z,23.50
2023-02-09T15:30:34.059Z,18.65
2023-02-09T15:33:02.491Z,16.70
2023-02-09T15:35:30.339Z,16.00
2023-02-09T15:38:01.136Z,14.68
2023-02-09T15:40:59.101Z,15.57
2023-02-09T15:43:46.167Z,14.60
2023-02-09T15:46:33.477Z,13.95
2023-02-09T15:49:01.814Z,14.23
2023-02-09T15:51:34.064Z,14.65
2023-02-09T15:54:15.974Z,15.20
2023-02-09T15:56:43.847Z,23.80
2023-02-09T15:59:21.155Z,23.63
2023-02-09T16:01:50.381Z,18.15
2023-02-09T16:04:18.644Z,17.33
2023-02-09T16:06:50.906Z,16.05
2023-02-09T16:09:27.666Z,16.60
2023-02-09T16:11:55.809Z,16.45
2023-02-09T16:14:27.662Z,16.42
2023-02-09T16:16:55.637Z,16.42
2023-02-09T16:19:23.514Z,16.27
2023-02-09T16:21:56.391Z,19.35
2023-02-09T16:24:44.172Z,21.30
2023-02-09T16:27:17.419Z,19.50
2023-02-09T16:29:45.288Z,25.70
2023-02-09T16:32:20.018Z,27.15
2023-02-09T16:34:47.796Z,24.75
2023-02-09T16:37:32.744Z,23.67
2023-02-09T16:40:02.163Z,23.65
2023-02-09T16:42:29.894Z,22.17
2023-02-09T16:44:57.845Z,20.98
2023-02-09T16:47:27.942Z,23.77
2023-02-09T16:50:04.025Z,21.40
2023-02-09T16:52:32.944Z,20.42
2023-02-09T16:55:22.392Z,20.52
2023-02-09T16:57:54.731Z,20.80
2023-02-09T17:00:31.193Z,21.52
2023-02-09T17:03:15.006Z,19.85
2023-02-09T17:05:55.746Z,18.88
2023-02-09T17:08:27.385Z,20.20
2023-02-09T17:10:56.509Z,19.33
2023-02-09T17:13:25.600Z,18.98
2023-02-09T17:16:00.938Z,20.05
2023-02-09T17:18:43.113Z,25.75
2023-02-09T17:21:31.496Z,27.90
2023-02-09T17:23:59.290Z,26.90
2023-02-09T17:26:27.693Z,27.42
2023-02-09T17:28:55.773Z,25.52
2023-02-09T17:31:28.630Z,22.05
2023-02-09T17:34:00.782Z,20.10
2023-02-09T17:36:30.044Z,17.45
2023-02-09T17:38:59.660Z,17.50
2023-02-09T17:41:43.052Z,16.95
2023-02-09T17:44:26.531Z,17.50
2023-02-09T17:46:56.976Z,17.33
2023-02-09T17:49:24.975Z,19.08
2023-02-09T17:51:53.038Z,18.17
2023-02-09T17:54:21.541Z,18.63
2023-02-09T17:56:49.478Z,17.65
2023-02-09T17:59:19.919Z,18.58
2023-02-09T18:01:55.082Z,19.45
2023-02-09T18:04:28.707Z,19.98
2023-02-09T18:06:58.219Z,18.90
2023-02-09T18:09:26.247Z,18.50
2023-02-09T18:11:59.723Z,18.10
2023-02-09T18:14:30.638Z,16.85
2023-02-09T18:16:59.008Z,16.65
2023-02-09T18:19:27.147Z,16.27
2023-02-09T18:21:58.995Z,15.32
2023-02-09T18:24:31.261Z,16.13
2023-02-09T18:26:59.338Z,16.75
2023-02-09T18:29:29.775Z,16.95
2023-02-09T18:32:00.322Z,18.60
2023-02-09T18:34:29.107Z,18.63
2023-02-09T18:36:57.301Z,19.77
2023-02-09T18:39:25.026Z,19.17
2023-02-09T18:41:54.490Z,19.88
2023-02-09T18:44:28.715Z,19.10
2023-02-09T18:47:00.403Z,19.55
2023-02-09T18:49:29.088Z,18.67
2023-02-09T18:51:58.775Z,18.30
2023-02-09T18:54:28.832Z,18.25
2023-02-09T18:57:05.950Z,17.95
2023-02-09T18:59:34.183Z,18.35
2023-02-09T19:02:03.560Z,18.52
2023-02-09T19:04:31.293Z,19.65
2023-02-09T19:06:59.181Z,20.25
2023-02-09T19:09:26.949Z,18.50
2023-02-09T19:11:54.704Z,19.38
2023-02-09T19:14:37.706Z,18.27
2023-02-09T19:17:07.904Z,17.63
2023-02-09T19:19:36.135Z,13.68
2023-02-09T19:22:03.968Z,17.35
2023-02-09T19:24:31.851Z,17.10
2023-02-09T19:26:59.786Z,16.83
2023-02-09T19:29:29.001Z,17.67
2023-02-09T19:31:57.010Z,18.88
2023-02-09T19:34:24.949Z,17.25
2023-02-09T19:36:52.688Z,17.35
2023-02-09T19:39:20.553Z,17.40
2023-02-09T19:41:49.197Z,16.95
2023-02-09T19:44:17.163Z,16.85
2023-02-09T19:46:45.592Z,15.77
2023-02-09T19:49:13.435Z,16.10
2023-02-09T19:51:41.139Z,16.48
2023-02-09T19:54:08.909Z,16.30
2023-02-09T19:56:37.290Z,17.75
2023-02-09T19:59:05.135Z,19.23
2023-02-09T20:01:33.374Z,20.38
2023-02-09T20:04:01.431Z,22.33
2023-02-09T20:06:30.978Z,25.27
2023-02-09T20:08:59.563Z,24.90
2023-02-09T20:11:28.405Z,23.45
2023-02-09T20:13:56.135Z,20.77
2023-02-09T20:16:27.298Z,25.00
2023-02-09T20:18:55.618Z,22.40
2023-02-09T20:21:24.463Z,21.63
2023-02-09T20:23:57.197Z,20.08
2023-02-09T20:26:30.292Z,19.35
2023-02-09T20:28:59.042Z,18.83
2023-02-09T20:31:32.558Z,18.70
2023-02-09T20:34:04.935Z,18.55
2023-02-09T20:36:39.399Z,18.58
2023-02-09T20:39:10.857Z,17.90
2023-02-09T20:44:25.423Z,16.65
2023-02-09T20:46:56.285Z,17.67
2023-02-09T20:49:31.063Z,13.60
2023-02-09T20:51:59.709Z,18.35
2023-02-09T20:54:27.566Z,18.23
2023-02-09T20:56:55.320Z,17.98
2023-02-09T20:59:24.628Z,18.83
2023-02-09T21:01:52.676Z,18.92
2023-02-09T21:04:20.391Z,18.48
2023-02-09T21:06:48.372Z,18.45
2023-02-09T21:09:16.588Z,19.15
2023-02-09T21:11:44.675Z,17.75
2023-02-09T21:14:21.947Z,18.10
2023-02-09T21:16:56.310Z,18.48
2023-02-09T21:19:25.088Z,19.08
2023-02-09T21:21:53.145Z,19.75
2023-02-09T21:24:21.329Z,19.05
2023-02-09T21:26:49.460Z,18.63
2023-02-09T21:29:17.270Z,21.02
2023-02-09T21:31:45.675Z,21.80
2023-02-09T21:34:17.202Z,20.27
2023-02-09T21:36:45.176Z,19.67
2023-02-09T21:39:13.436Z,20.60
2023-02-09T21:42:00.135Z,18.83
2023-02-09T21:44:28.547Z,18.77
2023-02-09T21:46:56.652Z,19.38
2023-02-09T21:49:24.425Z,19.42
2023-02-09T21:51:52.179Z,18.30
2023-02-09T21:54:20.144Z,19.08
2023-02-09T21:56:48.080Z,20.00
2023-02-09T21:59:17.069Z,21.05
2023-02-09T22:01:44.855Z,21.02
2023-02-09T22:04:12.649Z,22.70
2023-02-09T22:06:41.665Z,23.90
2023-02-09T22:09:09.524Z,24.48
2023-02-09T22:11:37.311Z,25.38
2023-02-09T22:14:06.588Z,23.20
2023-02-09T22:16:34.503Z,23.20
2023-02-09T22:19:04.569Z,22.20
2023-02-09T22:21:32.338Z,21.95
2023-02-09T22:24:00.017Z,20.02
2023-02-09T22:26:27.865Z,20.27
2023-02-09T22:28:55.555Z,20.42
2023-02-09T22:31:23.483Z,20.58
2023-02-09T22:33:55.067Z,20.05
2023-02-09T22:36:23.569Z,20.17
2023-02-09T22:38:51.942Z,19.40
2023-02-09T22:41:22.768Z,20.42
2023-02-09T22:43:55.779Z,20.10
2023-02-09T22:46:28.524Z,19.70
2023-02-09T22:49:00.391Z,20.20
2023-02-09T22:51:30.619Z,20.35
2023-02-09T22:54:00.117Z,19.88
2023-02-09T22:56:29.877Z,19.83
2023-02-09T22:59:00.115Z,18.77
2023-02-09T23:01:28.990Z,18.92
2023-02-09T23:03:57.754Z,17.95
2023-02-09T23:06:28.458Z,19.50
2023-02-09T23:09:00.592Z,14.48
2023-02-09T23:11:30.986Z,19.85
2023-02-09T23:14:09.249Z,19.08
2023-02-09T23:16:41.696Z,19.27
2023-02-09T23:19:19.533Z,19.35
2023-02-09T23:21:50.254Z,18.90
2023-02-09T23:24:21.717Z,19.63
2023-02-09T23:29:18.128Z,19.83
2023-02-09T23:31:47.087Z,18.27
2023-02-09T23:34:18.166Z,19.90
2023-02-09T23:36:46.405Z,19.55
2023-02-09T23:39:18.154Z,19.00
2023-02-09T23:41:46.771Z,19.60
2023-02-09T23:44:15.712Z,19.52
2023-02-09T23:46:44.795Z,18.90
2023-02-09T23:49:12.781Z,19.33
2023-02-09T23:51:40.606Z,17.70
2023-02-09T23:54:08.456Z,19.13
2023-02-09T23:56:37.238Z,18.13
2023-02-09T23:59:14.015Z,18.80
